sensor_id;sensor_type;location;lat;lon;timestamp;temperature;humidity
35804;DHT22;21924;51.934;7.414;2022-08-24T00:01:46;22.60;99.90
35804;DHT22;21924;51.934;7.414;2022-08-24T00:04:30;22.70;99.90
35804;DHT22;21924;51.934;7.414;2022-08-24T00:07:14;22.70;99.90
35804;DHT22;21924;51.934;7.414;2022-08-24T00:09:58;22.70;99.90
35804;DHT22;21924;51.934;7.414;2022-08-24T00:12:43;22.60;99.90
35804;DHT22;21924;51.934;7.414;2022-08-24T00:15:27;22.60;99.90
35804;DHT22;21924;51.934;7.414;2022-08-24T00:18:12;22.50;99.90
35804;DHT22;21924;51.934;7.414;2022-08-24T00:20:56;22.50;99.90
35804;DHT22;21924;51.934;7.414;2022-08-24T00:23:40;22.50;99.90
35804;DHT22;21924;51.934;7.414;2022-08-24T00:26:25;22.40;99.90
35804;DHT22;21924;51.934;7.414;2022-08-24T00:29:09;22.40;99.90
35804;DHT22;21924;51.934;7.414;2022-08-24T00:31:53;22.40;99.90
35804;DHT22;21924;51.934;7.414;2022-08-24T00:34:37;22.30;99.90
35804;DHT22;21924;51.934;7.414;2022-08-24T00:37:22;22.30;99.90
35804;DHT22;21924;51.934;7.414;2022-08-24T00:40:09;22.30;99.90
35804;DHT22;21924;51.934;7.414;2022-08-24T00:42:55;22.40;99.90
35804;DHT22;21924;51.934;7.414;2022-08-24T00:45:44;22.30;99.90
35804;DHT22;21924;51.934;7.414;2022-08-24T00:48:29;22.40;99.90
35804;DHT22;21924;51.934;7.414;2022-08-24T00:51:21;22.40;99.90
35804;DHT22;21924;51.934;7.414;2022-08-24T00:54:06;22.30;99.90
35804;DHT22;21924;51.934;7.414;2022-08-24T00:56:53;22.30;99.90
35804;DHT22;21924;51.934;7.414;2022-08-24T00:59:43;22.20;99.90
35804;DHT22;21924;51.934;7.414;2022-08-24T01:02:30;22.20;99.90
35804;DHT22;21924;51.934;7.414;2022-08-24T01:05:15;22.10;99.90
35804;DHT22;21924;51.934;7.414;2022-08-24T01:08:02;22.00;99.90
35804;DHT22;21924;51.934;7.414;2022-08-24T01:11:00;21.90;99.90
35804;DHT22;21924;51.934;7.414;2022-08-24T01:13:46;21.80;99.90
35804;DHT22;21924;51.934;7.414;2022-08-24T01:16:32;21.80;99.90
35804;DHT22;21924;51.934;7.414;2022-08-24T01:19:41;21.70;99.90
35804;DHT22;21924;51.934;7.414;2022-08-24T01:22:40;21.70;99.90
35804;DHT22;21924;51.934;7.414;2022-08-24T01:25:27;21.60;99.90
35804;DHT22;21924;51.934;7.414;2022-08-24T01:28:14;21.50;99.90
35804;DHT22;21924;51.934;7.414;2022-08-24T01:30:59;21.50;99.90
35804;DHT22;21924;51.934;7.414;2022-08-24T01:33:46;21.50;99.90
35804;DHT22;21924;51.934;7.414;2022-08-24T01:36:33;21.50;99.90
35804;DHT22;21924;51.934;7.414;2022-08-24T01:39:26;21.40;99.90
35804;DHT22;21924;51.934;7.414;2022-08-24T01:42:12;21.40;99.90
35804;DHT22;21924;51.934;7.414;2022-08-24T01:44:57;21.30;99.90
35804;DHT22;21924;51.934;7.414;2022-08-24T01:47:41;21.30;99.90
35804;DHT22;21924;51.934;7.414;2022-08-24T01:50:26;21.30;99.90
35804;DHT22;21924;51.934;7.414;2022-08-24T01:53:10;21.20;99.90
35804;DHT22;21924;51.934;7.414;2022-08-24T01:56:03;21.10;99.90
35804;DHT22;21924;51.934;7.414;2022-08-24T01:58:47;21.10;99.90
35804;DHT22;21924;51.934;7.414;2022-08-24T02:01:33;21.00;99.90
35804;DHT22;21924;51.934;7.414;2022-08-24T02:04:18;20.90;99.90
35804;DHT22;21924;51.934;7.414;2022-08-24T02:07:03;20.80;99.90
35804;DHT22;21924;51.934;7.414;2022-08-24T02:09:48;20.70;99.90
35804;DHT22;21924;51.934;7.414;2022-08-24T02:12:33;20.70;99.90
35804;DHT22;21924;51.934;7.414;2022-08-24T02:15:18;20.60;99.90
35804;DHT22;21924;51.934;7.414;2022-08-24T02:18:03;20.50;99.90
35804;DHT22;21924;51.934;7.414;2022-08-24T02:20:47;20.50;99.90
35804;DHT22;21924;51.934;7.414;2022-08-24T02:23:33;20.40;99.90
35804;DHT22;21924;51.934;7.414;2022-08-24T02:26:21;20.40;99.90
35804;DHT22;21924;51.934;7.414;2022-08-24T02:29:06;20.30;99.90
35804;DHT22;21924;51.934;7.414;2022-08-24T02:31:50;20.30;99.90
35804;DHT22;21924;51.934;7.414;2022-08-24T02:34:34;20.20;99.90
35804;DHT22;21924;51.934;7.414;2022-08-24T02:37:19;20.20;99.90
35804;DHT22;21924;51.934;7.414;2022-08-24T02:40:03;20.20;99.90
35804;DHT22;21924;51.934;7.414;2022-08-24T02:42:48;20.10;99.90
35804;DHT22;21924;51.934;7.414;2022-08-24T02:45:36;20.10;99.90
35804;DHT22;21924;51.934;7.414;2022-08-24T02:48:21;20.10;99.90
35804;DHT22;21924;51.934;7.414;2022-08-24T02:51:05;20.00;99.90
35804;DHT22;21924;51.934;7.414;2022-08-24T02:53:49;20.00;99.90
35804;DHT22;21924;51.934;7.414;2022-08-24T02:56:34;19.90;99.90
35804;DHT22;21924;51.934;7.414;2022-08-24T02:59:18;19.90;99.90
35804;DHT22;21924;51.934;7.414;2022-08-24T03:02:03;19.80;99.90
35804;DHT22;21924;51.934;7.414;2022-08-24T03:04:48;19.80;99.90
35804;DHT22;21924;51.934;7.414;2022-08-24T03:07:32;19.80;99.90
35804;DHT22;21924;51.934;7.414;2022-08-24T03:10:17;19.70;99.90
35804;DHT22;21924;51.934;7.414;2022-08-24T03:13:01;19.70;99.90
35804;DHT22;21924;51.934;7.414;2022-08-24T03:15:45;19.70;99.90
35804;DHT22;21924;51.934;7.414;2022-08-24T03:18:30;19.70;99.90
35804;DHT22;21924;51.934;7.414;2022-08-24T03:21:14;19.70;99.90
35804;DHT22;21924;51.934;7.414;2022-08-24T03:23:58;19.70;99.90
35804;DHT22;21924;51.934;7.414;2022-08-24T03:26:42;19.70;99.90
35804;DHT22;21924;51.934;7.414;2022-08-24T03:29:26;19.60;99.90
35804;DHT22;21924;51.934;7.414;2022-08-24T03:32:11;19.60;99.90
35804;DHT22;21924;51.934;7.414;2022-08-24T03:34:55;19.60;99.90
35804;DHT22;21924;51.934;7.414;2022-08-24T03:37:39;19.50;99.90
35804;DHT22;21924;51.934;7.414;2022-08-24T03:40:23;19.40;99.90
35804;DHT22;21924;51.934;7.414;2022-08-24T03:43:08;19.50;99.90
35804;DHT22;21924;51.934;7.414;2022-08-24T03:45:52;19.40;99.90
35804;DHT22;21924;51.934;7.414;2022-08-24T03:48:37;19.40;99.90
35804;DHT22;21924;51.934;7.414;2022-08-24T03:51:24;19.40;99.90
35804;DHT22;21924;51.934;7.414;2022-08-24T03:54:08;19.40;99.90
35804;DHT22;21924;51.934;7.414;2022-08-24T03:56:53;19.40;99.90
35804;DHT22;21924;51.934;7.414;2022-08-24T03:59:38;19.40;99.90
35804;DHT22;21924;51.934;7.414;2022-08-24T04:02:22;19.40;99.90
35804;DHT22;21924;51.934;7.414;2022-08-24T04:05:07;19.40;99.90
35804;DHT22;21924;51.934;7.414;2022-08-24T04:07:52;19.40;99.90
35804;DHT22;21924;51.934;7.414;2022-08-24T04:10:36;19.40;99.90
35804;DHT22;21924;51.934;7.414;2022-08-24T04:13:21;19.30;99.90
35804;DHT22;21924;51.934;7.414;2022-08-24T04:16:12;19.30;99.90
35804;DHT22;21924;51.934;7.414;2022-08-24T04:18:57;19.30;99.90
35804;DHT22;21924;51.934;7.414;2022-08-24T04:21:41;19.20;99.90
35804;DHT22;21924;51.934;7.414;2022-08-24T04:24:27;19.10;99.90
35804;DHT22;21924;51.934;7.414;2022-08-24T04:27:11;19.20;99.90
35804;DHT22;21924;51.934;7.414;2022-08-24T04:29:55;19.20;99.90
35804;DHT22;21924;51.934;7.414;2022-08-24T04:32:40;19.10;99.90
35804;DHT22;21924;51.934;7.414;2022-08-24T04:35:24;19.10;99.90
35804;DHT22;21924;51.934;7.414;2022-08-24T04:38:08;19.10;99.90
35804;DHT22;21924;51.934;7.414;2022-08-24T04:40:52;19.20;99.90
35804;DHT22;21924;51.934;7.414;2022-08-24T04:43:37;19.30;99.90
35804;DHT22;21924;51.934;7.414;2022-08-24T04:46:22;19.30;99.90
35804;DHT22;21924;51.934;7.414;2022-08-24T04:49:06;19.30;99.90
35804;DHT22;21924;51.934;7.414;2022-08-24T04:51:51;19.40;99.90
35804;DHT22;21924;51.934;7.414;2022-08-24T04:54:35;19.50;99.90
35804;DHT22;21924;51.934;7.414;2022-08-24T04:57:19;19.50;99.90
35804;DHT22;21924;51.934;7.414;2022-08-24T05:00:04;19.60;99.90
35804;DHT22;21924;51.934;7.414;2022-08-24T05:02:49;19.70;99.90
35804;DHT22;21924;51.934;7.414;2022-08-24T05:05:33;19.70;99.90
35804;DHT22;21924;51.934;7.414;2022-08-24T05:08:18;19.80;99.90
35804;DHT22;21924;51.934;7.414;2022-08-24T05:11:03;19.80;99.90
35804;DHT22;21924;51.934;7.414;2022-08-24T05:13:51;19.90;99.90
35804;DHT22;21924;51.934;7.414;2022-08-24T05:16:35;20.00;99.90
35804;DHT22;21924;51.934;7.414;2022-08-24T05:19:21;20.10;99.90
35804;DHT22;21924;51.934;7.414;2022-08-24T05:22:06;20.20;99.90
35804;DHT22;21924;51.934;7.414;2022-08-24T05:24:50;20.20;99.90
35804;DHT22;21924;51.934;7.414;2022-08-24T05:27:35;20.30;99.90
35804;DHT22;21924;51.934;7.414;2022-08-24T05:30:19;20.40;99.90
35804;DHT22;21924;51.934;7.414;2022-08-24T05:33:03;20.50;99.90
35804;DHT22;21924;51.934;7.414;2022-08-24T05:35:47;20.60;99.90
35804;DHT22;21924;51.934;7.414;2022-08-24T05:38:33;20.50;99.90
35804;DHT22;21924;51.934;7.414;2022-08-24T05:41:17;20.20;99.90
35804;DHT22;21924;51.934;7.414;2022-08-24T05:44:02;20.20;99.90
35804;DHT22;21924;51.934;7.414;2022-08-24T05:46:46;20.20;99.90
35804;DHT22;21924;51.934;7.414;2022-08-24T05:49:31;20.30;99.90
35804;DHT22;21924;51.934;7.414;2022-08-24T05:52:15;20.40;99.90
35804;DHT22;21924;51.934;7.414;2022-08-24T05:54:59;20.40;99.90
35804;DHT22;21924;51.934;7.414;2022-08-24T05:57:43;20.50;99.90
35804;DHT22;21924;51.934;7.414;2022-08-24T06:00:28;20.60;99.90
35804;DHT22;21924;51.934;7.414;2022-08-24T06:03:14;20.70;99.90
35804;DHT22;21924;51.934;7.414;2022-08-24T06:06:00;20.70;99.90
35804;DHT22;21924;51.934;7.414;2022-08-24T06:08:46;20.80;99.90
35804;DHT22;21924;51.934;7.414;2022-08-24T06:11:32;20.80;99.90
35804;DHT22;21924;51.934;7.414;2022-08-24T06:14:17;20.90;99.90
35804;DHT22;21924;51.934;7.414;2022-08-24T06:17:03;21.00;99.90
35804;DHT22;21924;51.934;7.414;2022-08-24T06:19:47;21.10;99.90
35804;DHT22;21924;51.934;7.414;2022-08-24T06:22:32;21.30;99.90
35804;DHT22;21924;51.934;7.414;2022-08-24T06:25:16;21.40;99.90
35804;DHT22;21924;51.934;7.414;2022-08-24T06:28:19;21.40;99.90
35804;DHT22;21924;51.934;7.414;2022-08-24T06:31:05;21.50;99.90
35804;DHT22;21924;51.934;7.414;2022-08-24T06:33:50;21.60;99.90
35804;DHT22;21924;51.934;7.414;2022-08-24T06:36:35;21.60;99.90
35804;DHT22;21924;51.934;7.414;2022-08-24T06:39:19;21.70;99.90
35804;DHT22;21924;51.934;7.414;2022-08-24T06:42:04;21.70;99.90
35804;DHT22;21924;51.934;7.414;2022-08-24T06:44:48;21.90;99.90
35804;DHT22;21924;51.934;7.414;2022-08-24T06:47:32;22.00;99.90
35804;DHT22;21924;51.934;7.414;2022-08-24T06:50:17;22.10;99.90
35804;DHT22;21924;51.934;7.414;2022-08-24T06:53:01;22.20;99.90
35804;DHT22;21924;51.934;7.414;2022-08-24T06:55:47;22.20;99.90
35804;DHT22;21924;51.934;7.414;2022-08-24T06:58:32;22.20;99.90
35804;DHT22;21924;51.934;7.414;2022-08-24T07:01:19;22.40;99.90
35804;DHT22;21924;51.934;7.414;2022-08-24T07:04:03;22.50;99.90
35804;DHT22;21924;51.934;7.414;2022-08-24T07:06:47;22.60;99.90
35804;DHT22;21924;51.934;7.414;2022-08-24T07:09:31;22.70;99.90
35804;DHT22;21924;51.934;7.414;2022-08-24T07:12:16;22.70;99.90
35804;DHT22;21924;51.934;7.414;2022-08-24T07:15:01;22.80;99.90
35804;DHT22;21924;51.934;7.414;2022-08-24T07:17:45;22.90;99.90
35804;DHT22;21924;51.934;7.414;2022-08-24T07:20:30;23.10;99.90
35804;DHT22;21924;51.934;7.414;2022-08-24T07:23:14;23.20;99.90
35804;DHT22;21924;51.934;7.414;2022-08-24T07:26:06;23.40;99.90
35804;DHT22;21924;51.934;7.414;2022-08-24T07:28:52;23.50;99.90
35804;DHT22;21924;51.934;7.414;2022-08-24T07:31:37;23.50;99.90
35804;DHT22;21924;51.934;7.414;2022-08-24T07:34:22;23.50;99.90
35804;DHT22;21924;51.934;7.414;2022-08-24T07:37:06;23.60;99.90
35804;DHT22;21924;51.934;7.414;2022-08-24T07:39:51;23.70;99.90
35804;DHT22;21924;51.934;7.414;2022-08-24T07:42:36;23.70;99.90
35804;DHT22;21924;51.934;7.414;2022-08-24T07:45:22;23.80;99.90
35804;DHT22;21924;51.934;7.414;2022-08-24T07:48:07;23.90;99.90
35804;DHT22;21924;51.934;7.414;2022-08-24T07:50:51;24.00;99.90
35804;DHT22;21924;51.934;7.414;2022-08-24T07:53:36;24.00;99.90
35804;DHT22;21924;51.934;7.414;2022-08-24T07:56:20;24.10;99.90
35804;DHT22;21924;51.934;7.414;2022-08-24T07:59:04;24.10;99.90
35804;DHT22;21924;51.934;7.414;2022-08-24T08:01:57;24.10;99.90
35804;DHT22;21924;51.934;7.414;2022-08-24T08:04:42;24.00;99.90
35804;DHT22;21924;51.934;7.414;2022-08-24T08:07:26;24.20;99.90
35804;DHT22;21924;51.934;7.414;2022-08-24T08:10:11;24.30;99.90
35804;DHT22;21924;51.934;7.414;2022-08-24T08:12:55;24.60;99.90
35804;DHT22;21924;51.934;7.414;2022-08-24T08:15:40;24.70;99.90
35804;DHT22;21924;51.934;7.414;2022-08-24T08:18:24;24.80;99.90
35804;DHT22;21924;51.934;7.414;2022-08-24T08:21:09;24.90;99.90
35804;DHT22;21924;51.934;7.414;2022-08-24T08:24:13;24.80;99.90
35804;DHT22;21924;51.934;7.414;2022-08-24T08:27:04;24.90;99.90
35804;DHT22;21924;51.934;7.414;2022-08-24T08:29:48;24.90;99.90
35804;DHT22;21924;51.934;7.414;2022-08-24T08:32:33;24.90;99.90
35804;DHT22;21924;51.934;7.414;2022-08-24T08:35:17;25.00;99.90
35804;DHT22;21924;51.934;7.414;2022-08-24T08:38:02;25.10;99.90
35804;DHT22;21924;51.934;7.414;2022-08-24T08:44:12;25.30;99.90
35804;DHT22;21924;51.934;7.414;2022-08-24T08:55:56;25.50;99.90
35804;DHT22;21924;51.934;7.414;2022-08-24T09:13:29;26.80;99.90
35804;DHT22;21924;51.934;7.414;2022-08-24T09:16:21;26.90;99.90
35804;DHT22;21924;51.934;7.414;2022-08-24T09:20:11;26.90;99.90
35804;DHT22;21924;51.934;7.414;2022-08-24T09:22:23;27.00;99.90
35804;DHT22;21924;51.934;7.414;2022-08-24T09:28:13;27.30;99.90
35804;DHT22;21924;51.934;7.414;2022-08-24T09:51:57;27.80;99.90
35804;DHT22;21924;51.934;7.414;2022-08-24T10:11:44;28.80;99.90
35804;DHT22;21924;51.934;7.414;2022-08-24T10:20:27;29.30;99.90
35804;DHT22;21924;51.934;7.414;2022-08-24T10:35:09;29.60;99.80
35804;DHT22;21924;51.934;7.414;2022-08-24T10:42:06;29.90;98.90
35804;DHT22;21924;51.934;7.414;2022-08-24T10:44:42;29.80;97.70
35804;DHT22;21924;51.934;7.414;2022-08-24T10:47:29;29.60;98.00
35804;DHT22;21924;51.934;7.414;2022-08-24T10:50:24;29.70;98.00
35804;DHT22;21924;51.934;7.414;2022-08-24T10:53:16;29.90;98.00
35804;DHT22;21924;51.934;7.414;2022-08-24T10:56:13;29.90;97.40
35804;DHT22;21924;51.934;7.414;2022-08-24T11:02:11;30.30;97.70
35804;DHT22;21924;51.934;7.414;2022-08-24T11:05:13;30.50;96.90
35804;DHT22;21924;51.934;7.414;2022-08-24T11:07:58;30.50;96.30
35804;DHT22;21924;51.934;7.414;2022-08-24T11:10:43;30.50;96.00
35804;DHT22;21924;51.934;7.414;2022-08-24T11:13:28;30.70;95.90
35804;DHT22;21924;51.934;7.414;2022-08-24T11:16:28;30.60;95.20
35804;DHT22;21924;51.934;7.414;2022-08-24T11:19:34;30.70;95.30
35804;DHT22;21924;51.934;7.414;2022-08-24T11:25:21;31.10;94.80
35804;DHT22;21924;51.934;7.414;2022-08-24T11:31:12;31.00;95.50
35804;DHT22;21924;51.934;7.414;2022-08-24T11:34:07;31.10;94.70
35804;DHT22;21924;51.934;7.414;2022-08-24T11:36:52;30.80;95.20
35804;DHT22;21924;51.934;7.414;2022-08-24T11:39:37;30.80;94.60
35804;DHT22;21924;51.934;7.414;2022-08-24T11:53:35;32.20;93.30
35804;DHT22;21924;51.934;7.414;2022-08-24T11:56:27;32.60;93.70
35804;DHT22;21924;51.934;7.414;2022-08-24T12:02:27;32.90;93.10
35804;DHT22;21924;51.934;7.414;2022-08-24T12:05:21;32.80;92.90
35804;DHT22;21924;51.934;7.414;2022-08-24T12:08:16;32.80;92.20
35804;DHT22;21924;51.934;7.414;2022-08-24T12:11:06;33.00;91.90
35804;DHT22;21924;51.934;7.414;2022-08-24T12:13:56;33.20;91.80
35804;DHT22;21924;51.934;7.414;2022-08-24T12:16:45;32.70;91.70
35804;DHT22;21924;51.934;7.414;2022-08-24T12:19:33;32.10;91.60
35804;DHT22;21924;51.934;7.414;2022-08-24T12:22:19;31.70;92.00
35804;DHT22;21924;51.934;7.414;2022-08-24T12:25:03;32.20;92.30
35804;DHT22;21924;51.934;7.414;2022-08-24T12:28:08;32.70;91.70
35804;DHT22;21924;51.934;7.414;2022-08-24T12:30:53;32.60;91.20
35804;DHT22;21924;51.934;7.414;2022-08-24T12:33:44;32.20;91.60
35804;DHT22;21924;51.934;7.414;2022-08-24T12:36:32;32.30;91.80
35804;DHT22;21924;51.934;7.414;2022-08-24T12:39:21;32.60;91.90
35804;DHT22;21924;51.934;7.414;2022-08-24T12:42:19;32.90;91.40
35804;DHT22;21924;51.934;7.414;2022-08-24T12:45:08;33.10;90.70
35804;DHT22;21924;51.934;7.414;2022-08-24T12:50:39;33.20;90.40
35804;DHT22;21924;51.934;7.414;2022-08-24T13:07:38;33.60;88.40
35804;DHT22;21924;51.934;7.414;2022-08-24T13:13:10;33.70;88.10
35804;DHT22;21924;51.934;7.414;2022-08-24T13:15:55;33.90;87.30
35804;DHT22;21924;51.934;7.414;2022-08-24T13:18:48;33.90;88.10
35804;DHT22;21924;51.934;7.414;2022-08-24T13:21:35;34.00;88.30
35804;DHT22;21924;51.934;7.414;2022-08-24T13:30:06;33.70;87.90
35804;DHT22;21924;51.934;7.414;2022-08-24T13:32:56;34.10;86.80
35804;DHT22;21924;51.934;7.414;2022-08-24T13:41:28;33.60;85.60
35804;DHT22;21924;51.934;7.414;2022-08-24T13:44:24;33.20;85.80
35804;DHT22;21924;51.934;7.414;2022-08-24T13:50:09;34.10;85.20
35804;DHT22;21924;51.934;7.414;2022-08-24T13:58:41;35.30;83.10
35804;DHT22;21924;51.934;7.414;2022-08-24T14:07:17;35.60;82.40
35804;DHT22;21924;51.934;7.414;2022-08-24T14:18:31;35.90;79.70
35804;DHT22;21924;51.934;7.414;2022-08-24T14:21:21;35.90;79.00
35804;DHT22;21924;51.934;7.414;2022-08-24T14:24:17;37.00;79.10
35804;DHT22;21924;51.934;7.414;2022-08-24T14:38:50;36.30;78.50
35804;DHT22;21924;51.934;7.414;2022-08-24T15:01:47;34.90;78.40
35804;DHT22;21924;51.934;7.414;2022-08-24T15:04:38;34.60;78.60
35804;DHT22;21924;51.934;7.414;2022-08-24T15:07:30;34.90;78.20
35804;DHT22;21924;51.934;7.414;2022-08-24T15:10:15;35.00;77.50
35804;DHT22;21924;51.934;7.414;2022-08-24T15:13:00;35.70;76.60
35804;DHT22;21924;51.934;7.414;2022-08-24T15:15:55;36.00;76.30
35804;DHT22;21924;51.934;7.414;2022-08-24T15:21:38;36.50;75.20
35804;DHT22;21924;51.934;7.414;2022-08-24T15:24:28;36.50;75.20
35804;DHT22;21924;51.934;7.414;2022-08-24T15:27:25;36.00;75.40
35804;DHT22;21924;51.934;7.414;2022-08-24T15:30:51;35.60;76.20
35804;DHT22;21924;51.934;7.414;2022-08-24T15:33:23;35.80;74.70
35804;DHT22;21924;51.934;7.414;2022-08-24T15:36:11;36.00;74.50
35804;DHT22;21924;51.934;7.414;2022-08-24T15:38:56;35.70;74.90
35804;DHT22;21924;51.934;7.414;2022-08-24T15:41:40;35.90;74.90
35804;DHT22;21924;51.934;7.414;2022-08-24T15:44:27;35.90;75.00
35804;DHT22;21924;51.934;7.414;2022-08-24T15:50:20;34.00;76.70
35804;DHT22;21924;51.934;7.414;2022-08-24T15:53:27;33.60;77.50
35804;DHT22;21924;51.934;7.414;2022-08-24T15:56:23;33.50;78.80
35804;DHT22;21924;51.934;7.414;2022-08-24T15:59:09;33.70;78.30
35804;DHT22;21924;51.934;7.414;2022-08-24T16:01:54;33.50;79.10
35804;DHT22;21924;51.934;7.414;2022-08-24T16:08:04;32.70;79.00
35804;DHT22;21924;51.934;7.414;2022-08-24T16:10:49;32.30;80.00
35804;DHT22;21924;51.934;7.414;2022-08-24T16:13:35;32.10;80.40
35804;DHT22;21924;51.934;7.414;2022-08-24T16:16:35;31.90;79.60
35804;DHT22;21924;51.934;7.414;2022-08-24T16:19:22;31.90;80.30
35804;DHT22;21924;51.934;7.414;2022-08-24T16:22:07;31.70;81.30
35804;DHT22;21924;51.934;7.414;2022-08-24T16:25:08;31.60;81.50
35804;DHT22;21924;51.934;7.414;2022-08-24T16:27:57;31.50;80.80
35804;DHT22;21924;51.934;7.414;2022-08-24T16:33:37;31.30;81.00
35804;DHT22;21924;51.934;7.414;2022-08-24T16:36:22;31.30;81.00
35804;DHT22;21924;51.934;7.414;2022-08-24T16:39:06;31.10;81.00
35804;DHT22;21924;51.934;7.414;2022-08-24T16:41:55;31.00;81.70
35804;DHT22;21924;51.934;7.414;2022-08-24T16:44:40;30.90;81.50
35804;DHT22;21924;51.934;7.414;2022-08-24T16:47:26;30.90;81.90
35804;DHT22;21924;51.934;7.414;2022-08-24T16:50:11;30.90;82.10
35804;DHT22;21924;51.934;7.414;2022-08-24T16:52:55;30.80;82.40
35804;DHT22;21924;51.934;7.414;2022-08-24T16:55:39;30.70;82.10
35804;DHT22;21924;51.934;7.414;2022-08-24T16:58:26;30.60;82.10
35804;DHT22;21924;51.934;7.414;2022-08-24T17:01:12;30.50;82.30
35804;DHT22;21924;51.934;7.414;2022-08-24T17:03:56;30.40;82.60
35804;DHT22;21924;51.934;7.414;2022-08-24T17:06:41;30.30;83.40
35804;DHT22;21924;51.934;7.414;2022-08-24T17:09:25;30.10;84.40
35804;DHT22;21924;51.934;7.414;2022-08-24T17:12:09;30.00;84.30
35804;DHT22;21924;51.934;7.414;2022-08-24T17:14:53;30.00;84.30
35804;DHT22;21924;51.934;7.414;2022-08-24T17:17:38;29.90;85.80
35804;DHT22;21924;51.934;7.414;2022-08-24T17:20:23;29.80;85.30
35804;DHT22;21924;51.934;7.414;2022-08-24T17:23:07;29.60;86.10
35804;DHT22;21924;51.934;7.414;2022-08-24T17:25:51;29.60;87.00
35804;DHT22;21924;51.934;7.414;2022-08-24T17:28:37;29.40;86.80
35804;DHT22;21924;51.934;7.414;2022-08-24T17:31:22;29.30;86.40
35804;DHT22;21924;51.934;7.414;2022-08-24T17:34:11;29.30;86.10
35804;DHT22;21924;51.934;7.414;2022-08-24T17:36:56;29.20;86.00
35804;DHT22;21924;51.934;7.414;2022-08-24T17:39:40;29.20;86.20
35804;DHT22;21924;51.934;7.414;2022-08-24T17:42:24;29.20;87.10
35804;DHT22;21924;51.934;7.414;2022-08-24T17:45:09;29.10;88.40
35804;DHT22;21924;51.934;7.414;2022-08-24T17:47:53;29.00;89.00
35804;DHT22;21924;51.934;7.414;2022-08-24T17:50:37;28.80;89.20
35804;DHT22;21924;51.934;7.414;2022-08-24T17:53:22;28.70;89.60
35804;DHT22;21924;51.934;7.414;2022-08-24T17:56:06;28.60;89.80
35804;DHT22;21924;51.934;7.414;2022-08-24T17:58:51;28.60;89.20
35804;DHT22;21924;51.934;7.414;2022-08-24T18:02:02;28.60;89.60
35804;DHT22;21924;51.934;7.414;2022-08-24T18:04:46;28.50;90.20
35804;DHT22;21924;51.934;7.414;2022-08-24T18:07:31;28.30;90.40
35804;DHT22;21924;51.934;7.414;2022-08-24T18:10:16;28.20;90.40
35804;DHT22;21924;51.934;7.414;2022-08-24T18:13:01;28.10;90.40
35804;DHT22;21924;51.934;7.414;2022-08-24T18:15:46;28.10;90.40
35804;DHT22;21924;51.934;7.414;2022-08-24T18:18:30;28.00;90.30
35804;DHT22;21924;51.934;7.414;2022-08-24T18:21:14;27.90;90.30
35804;DHT22;21924;51.934;7.414;2022-08-24T18:23:59;28.00;90.20
35804;DHT22;21924;51.934;7.414;2022-08-24T18:26:44;27.90;90.00
35804;DHT22;21924;51.934;7.414;2022-08-24T18:29:29;27.80;90.80
35804;DHT22;21924;51.934;7.414;2022-08-24T18:32:13;27.60;90.90
35804;DHT22;21924;51.934;7.414;2022-08-24T18:34:57;27.50;91.00
35804;DHT22;21924;51.934;7.414;2022-08-24T18:37:42;27.30;91.00
35804;DHT22;21924;51.934;7.414;2022-08-24T18:40:26;27.20;91.20
35804;DHT22;21924;51.934;7.414;2022-08-24T18:43:11;27.00;91.40
35804;DHT22;21924;51.934;7.414;2022-08-24T18:45:58;26.90;91.50
35804;DHT22;21924;51.934;7.414;2022-08-24T18:48:42;26.90;91.40
35804;DHT22;21924;51.934;7.414;2022-08-24T18:51:26;26.80;91.10
35804;DHT22;21924;51.934;7.414;2022-08-24T18:54:12;26.70;91.10
35804;DHT22;21924;51.934;7.414;2022-08-24T18:56:58;26.70;91.30
35804;DHT22;21924;51.934;7.414;2022-08-24T18:59:42;26.60;91.30
35804;DHT22;21924;51.934;7.414;2022-08-24T19:02:26;26.50;91.10
35804;DHT22;21924;51.934;7.414;2022-08-24T19:05:18;26.50;91.20
35804;DHT22;21924;51.934;7.414;2022-08-24T19:08:03;26.40;91.40
35804;DHT22;21924;51.934;7.414;2022-08-24T19:10:48;26.30;91.30
35804;DHT22;21924;51.934;7.414;2022-08-24T19:13:32;26.30;91.60
35804;DHT22;21924;51.934;7.414;2022-08-24T19:16:16;26.30;91.50
35804;DHT22;21924;51.934;7.414;2022-08-24T19:19:01;26.20;91.60
35804;DHT22;21924;51.934;7.414;2022-08-24T19:21:45;26.20;91.60
35804;DHT22;21924;51.934;7.414;2022-08-24T19:24:30;26.10;91.70
35804;DHT22;21924;51.934;7.414;2022-08-24T19:27:15;26.00;91.70
35804;DHT22;21924;51.934;7.414;2022-08-24T19:29:59;25.90;91.70
35804;DHT22;21924;51.934;7.414;2022-08-24T19:32:43;25.90;91.80
35804;DHT22;21924;51.934;7.414;2022-08-24T19:35:28;25.90;91.80
35804;DHT22;21924;51.934;7.414;2022-08-24T19:38:12;25.90;91.40
35804;DHT22;21924;51.934;7.414;2022-08-24T19:40:57;25.90;91.50
35804;DHT22;21924;51.934;7.414;2022-08-24T19:43:41;25.90;91.20
35804;DHT22;21924;51.934;7.414;2022-08-24T19:46:46;26.00;91.10
35804;DHT22;21924;51.934;7.414;2022-08-24T19:49:30;25.90;91.20
35804;DHT22;21924;51.934;7.414;2022-08-24T19:52:17;25.90;91.30
35804;DHT22;21924;51.934;7.414;2022-08-24T19:55:04;25.90;91.50
35804;DHT22;21924;51.934;7.414;2022-08-24T19:57:52;25.90;91.50
35804;DHT22;21924;51.934;7.414;2022-08-24T20:00:40;25.80;91.80
35804;DHT22;21924;51.934;7.414;2022-08-24T20:03:25;25.80;91.70
35804;DHT22;21924;51.934;7.414;2022-08-24T20:06:09;25.90;91.50
35804;DHT22;21924;51.934;7.414;2022-08-24T20:08:54;25.80;91.60
35804;DHT22;21924;51.934;7.414;2022-08-24T20:11:38;25.80;91.60
35804;DHT22;21924;51.934;7.414;2022-08-24T20:14:23;25.80;91.80
35804;DHT22;21924;51.934;7.414;2022-08-24T20:17:07;25.80;91.60
35804;DHT22;21924;51.934;7.414;2022-08-24T20:19:51;25.80;91.70
35804;DHT22;21924;51.934;7.414;2022-08-24T20:22:36;25.90;91.50
35804;DHT22;21924;51.934;7.414;2022-08-24T20:25:21;26.00;91.50
35804;DHT22;21924;51.934;7.414;2022-08-24T20:28:05;25.90;91.30
35804;DHT22;21924;51.934;7.414;2022-08-24T20:30:50;26.10;91.30
35804;DHT22;21924;51.934;7.414;2022-08-24T20:33:34;26.00;91.40
35804;DHT22;21924;51.934;7.414;2022-08-24T20:36:23;26.10;91.20
35804;DHT22;21924;51.934;7.414;2022-08-24T20:39:08;26.00;91.40
35804;DHT22;21924;51.934;7.414;2022-08-24T20:41:53;26.00;91.40
35804;DHT22;21924;51.934;7.414;2022-08-24T20:44:37;26.00;91.50
35804;DHT22;21924;51.934;7.414;2022-08-24T20:47:22;25.90;91.60
35804;DHT22;21924;51.934;7.414;2022-08-24T20:50:06;25.90;91.70
35804;DHT22;21924;51.934;7.414;2022-08-24T20:52:51;25.80;91.80
35804;DHT22;21924;51.934;7.414;2022-08-24T20:55:36;25.80;91.80
35804;DHT22;21924;51.934;7.414;2022-08-24T20:58:21;25.80;91.90
35804;DHT22;21924;51.934;7.414;2022-08-24T21:01:06;25.70;92.10
35804;DHT22;21924;51.934;7.414;2022-08-24T21:03:50;25.70;92.00